KUNU/UNU METAR and TAF weather

Enter ICAO airport designator
Station Type Date Time Source
KUNU METAR 2019/05/26 01:55 UTC NOAA

KUNU 260155Z AUTO 23005KT 10SM CLR 20/15 A2990 RMK AO2 T02030152 TSNO


Station Type Date Time Source
KUNU Decoded METAR 2019/05/26 01:55 UTC NOAA

Juneau, Dodge County Airport, WI, United States (KUNU) 43-25-36N 088-42-12W
May 25, 2019 - 09:55 PM EDT / 2019.05.26 0155 UTC
Wind: from the SW (230 degrees) at 6 MPH (5 KT):0
Visibility: 10 mile(s):0
Sky conditions: clear
Temperature: 68.5 F (20.3 C)
Dew Point: 59.4 F (15.2 C)
Relative Humidity: 72%
Pressure (altimeter): 29.9 in. Hg (1012 hPa)
ob: KUNU 260155Z AUTO 23005KT 10SM CLR 20/15 A2990 RMK AO2 T02030152 TSNO
cycle: 2

Station Type Date Time Source
KUNU TAF UTC NOAA

Error!

Example: see airport list